Terminal Aerodrome Forecast
Issued by NWS

Home | Current Version | Previous Version | Text Only | Print | Product List | Glossary On
Versions: 1 2 3 4 5 6 7 8 9 10 11 12 13 14 15 16 17 18 19
000
FTUS43 KGRR 051200 AAA
TAFAZO
TAF AMD
KAZO 051201Z 0512/0612 07008KT 4SM RA BR OVC035
      TEMPO 0512/0516 2SM RA BR
     FM051600 07010KT 2SM RA BR OVC015
     FM052100 09008KT 4SM -RA BR OVC007
     FM060300 08008KT 2SM -DZ BR OVC004=

USA.gov is the U.S. government's official web portal to all federal, state and local government web resources and services.